Terminal Aerodrome Forecast
Issued by NWS

Home | Current Version | Previous Version | Text Only | Print | Product List | Glossary On
Versions: 1 2 3 4 5 6 7 8 9 10 11 12 13 14
000
FTUS41 KLWX 282300
TAFMTN
TAF
KMTN 282339Z 2900/2924 28006KT P6SM SCT120
     FM290200 00000KT P6SM FEW040 BKN120
     FM291400 15006KT P6SM SCT060 BKN120
     FM291800 17011G19KT P6SM BKN090
      AMD NOT SKED 2902/2912=

USA.gov is the U.S. government's official web portal to all federal, state and local government web resources and services.